KAKO/AKO METAR and TAF weather

Enter ICAO airport designator
Station Type Date Time Source
KAKO METAR 2018/04/19 12:53 UTC NOAA

KAKO 191253Z AUTO 13011KT 10SM CLR M03/M07 A3032 RMK AO2 SLP278 T10281067


Station Type Date Time Source
KAKO Decoded METAR 2018/04/19 12:53 UTC NOAA

COLORADO PLAINS REGIONAL, CO, United States (KAKO) 40-10N 103-13W 1421M
Apr 19, 2018 - 08:53 AM EDT / 2018.04.19 1253 UTC
Wind: from the SE (130 degrees) at 13 MPH (11 KT):0
Visibility: 10 mile(s):0
Sky conditions: clear
Temperature: 27.0 F (-2.8 C)
Windchill: 15 F (-9 C):1
Dew Point: 19.9 F (-6.7 C)
Relative Humidity: 74%
Pressure (altimeter): 30.32 in. Hg (1026 hPa)
ob: KAKO 191253Z AUTO 13011KT 10SM CLR M03/M07 A3032 RMK AO2 SLP278 T10281067
cycle: 13

Station Type Date Time Source
KAKO TAF UTC NOAA

Error!


Example: see airport list